Wind Gültig von: 08-12-2019 10:48 bis: 09-12-2019 18:00 Warnung für: Wind Gefahrenstufe: Orange info button

Besuchen Sie unsere anderen Wetter Stationen:

Template documentation
and downloads

And another site



METAR-Meldungen aus der Umgebung


Warning: A non-numeric value encountered in /is/htdocs/wp10906056_0YHW7Q9XB7/www/weather28/metar/metarDisplay.php on line 166
   
EHVK - Volkel Rnlafb, Netherlands
Entfernung von der Station bis: SW 18 km
Aktualisierung: 08-12-2019 15:55
Teilweise bewölkt  
Teilweise bewölkt  
   Wind: WSW 25.9 km/h
Wind: WSW 25.9 km/h
Temperatur: 10°C
Gefühlt: 7°C
Taupunkt: 5°C
Luftfeuchte: 71%
Luftdruck: 999 hPa
Bewölkt: Teilweise bewölkt
Sichtbarkeit: More than 10 km
Bewölkung: Teilweise bewölkt 914.4 m
EHVK 081455Z AUTO 24014KT 9999 SCT030 10/05 Q0999 BLU
EDLV - Niederrhein, Germany
Entfernung von der Station bis: SO 25 km
Aktualisierung: 08-12-2019 15:50
Teilweise bewölkt  
Teilweise bewölkt  
   Wind: WSW 22.2 km/h
Wind: WSW 22.2 km/h
Temperatur: 10°C
Gefühlt: 7°C
Taupunkt: 5°C
Luftfeuchte: 71%
Luftdruck: 1000 hPa
Bewölkt: Teilweise bewölkt
Sichtbarkeit: More than 10 km
Bewölkung: Teilweise bewölkt 975.4 m
EDLV 081450Z 25012KT 9999 SCT032 10/05 Q1000
EHDL - Deelen Rnlafb, Netherlands
Entfernung von der Station bis: N 35 km
Aktualisierung: 08-12-2019 15:55
Stark bewölkt  
Stark bewölkt  
   Wind: WSW 29.6 km/h
Wind: WSW 29.6 km/h
Temperatur: 9°C
Gefühlt: 6°C
Taupunkt: 6°C
Luftfeuchte: 82%
Luftdruck: 998 hPa
Bewölkt: Stark bewölkt
Sichtbarkeit: More than 10 km
Bewölkung: Teilweise bewölkt 640.1 m,
Stark bewölkt 762 m,
Stark bewölkt 883.9 m
EHDL 081455Z AUTO 24016KT 170V280 9999 SCT021 BKN025 BKN029 09/06 Q0998 WHT
EHEH - Eindhoven Rnlafb, Netherlands
Entfernung von der Station bis: SW 48 km
Aktualisierung: 08-12-2019 15:55
Klar  
Klar  
   Wind: WSW 27.8 km/h
Wind: WSW 27.8 km/h
Temperatur: 10°C
Gefühlt: 7°C
Taupunkt: 4°C
Luftfeuchte: 67%
Luftdruck: 1000 hPa
Bewölkt: Klar
Sichtbarkeit: More than 10 km
Bewölkung: Klar
EHEH 081455Z AUTO 24015KT 200V270 9999 NCD 10/04 Q1000 BLU 24019G29KT 9999 SCT030
EHGR - Gilze-Rijen Rnla, Netherlands
Entfernung von der Station bis: WSW 70 km
Aktualisierung: 08-12-2019 15:55
leicht bewölkt  
leicht bewölkt  
   Wind: SW 16.7 km/h
Wind: SW 16.7 km/h
Temperatur: 10°C
Gefühlt: 8°C
Taupunkt: 5°C
Luftfeuchte: 71%
Luftdruck: 1000 hPa
Bewölkt: leicht bewölkt
Sichtbarkeit: More than 10 km
Bewölkung: leicht bewölkt 1005.8 m
EHGR 081455Z AUTO 23009KT 190V280 9999 FEW033 10/05 Q1000 BLU
EBBL - Kleine-Brogel(Ba, Belgium
Entfernung von der Station bis: SSW 71 km
Aktualisierung: 08-12-2019 15:55
Teilweise bewölkt  
Teilweise bewölkt  
   Wind: SW 31.5 km/h
Wind: SW 31.5 km/h
Temperatur: 10°C
Gefühlt: 7°C
Taupunkt: 5°C
Luftfeuchte: 71%
Luftdruck: 1001 hPa
Bewölkt: Teilweise bewölkt
Sichtbarkeit: More than 10 km
Bewölkung: Teilweise bewölkt 975.4 m
EBBL 081455Z AUTO 23017KT 9999 SCT032/// 10/05 Q1001 BLU

Script entwickelt von  Saratoga-weather.org Angepasst für das Template von  Weerstation Leuven

Sie finden unser Wetter-Infos auch auf:

netzwerkwettercom

European Weather Network

WeatherCloud

Weather Underground

AWEKAS

Citizen Weather Observer Program (CWOP)

HAMweather, WeatherForYou, PWS Weather

Von uns verwendete Ausrüstung:

Wetterstation
Davis VP2

Davis VP2